Time;durP1;ratioP1;P1;durP2;ratioP2;P2;SDS_P1;SDS_P2;PMS_P1;PMS_P2;Temp;Humidity;BMP_temperature;BMP_pressure;BME280_temperature;BME280_humidity;BME280_pressure;Samples;Min_cycle;Max_cycle;Signal;HPM_P1;HPM_P2
2022/06/18 00:00:55;;;;;;;3.00;2.00;;;17.70;68.10;;;;;;5049953;28;20111;-83
2022/06/18 00:03:22;;;;;;;7.30;1.90;;;17.70;68.30;;;;;;5053694;28;20025;-83
2022/06/18 00:05:50;;;;;;;6.20;2.22;;;17.70;68.30;;;;;;5034952;28;20104;-83
2022/06/18 00:08:20;;;;;;;4.07;2.03;;;17.70;68.70;;;;;;5034193;28;20017;-83
2022/06/18 00:10:49;;;;;;;2.80;2.08;;;17.70;68.50;;;;;;5045463;28;20424;-83
2022/06/18 00:15:59;;;;;;;4.88;2.22;;;17.60;68.70;;;;;;5071389;28;20043;-83
2022/06/18 00:18:25;;;;;;;3.47;1.92;;;17.60;68.60;;;;;;5052841;28;20024;-83
2022/06/18 00:20:51;;;;;;;2.97;1.77;;;17.60;68.80;;;;;;5072410;28;20464;-83
2022/06/18 00:23:18;;;;;;;4.82;2.03;;;17.70;68.50;;;;;;5065041;28;20032;-83
2022/06/18 00:25:46;;;;;;;3.38;2.10;;;17.70;68.40;;;;;;5053205;28;20029;-83
2022/06/18 00:28:21;;;;;;;3.10;1.70;;;17.60;68.60;;;;;;5052255;28;20082;-83
2022/06/18 00:30:48;;;;;;;3.40;2.03;;;17.70;68.20;;;;;;5051190;28;20033;-83
2022/06/18 00:33:14;;;;;;;5.28;2.25;;;17.80;68.20;;;;;;5050698;28;20096;-83
2022/06/18 00:35:41;;;;;;;3.40;1.90;;;17.70;68.20;;;;;;5054285;28;20942;-83
2022/06/18 00:38:11;;;;;;;4.82;1.90;;;17.60;68.20;;;;;;5048199;28;20034;-83
2022/06/18 00:40:40;;;;;;;5.25;1.80;;;17.60;68.60;;;;;;5051832;28;20115;-83
2022/06/18 00:43:28;;;;;;;4.63;2.08;;;17.70;68.60;;;;;;5067263;28;20033;-83
2022/06/18 00:46:00;;;;;;;3.85;1.80;;;17.60;68.60;;;;;;5056832;28;20134;-83
2022/06/18 00:48:47;;;;;;;2.60;1.80;;;17.60;68.70;;;;;;5068562;28;20043;-83
2022/06/18 00:51:23;;;;;;;3.08;1.98;;;17.60;68.80;;;;;;5069631;28;20032;-83
2022/06/18 00:53:53;;;;;;;6.22;2.30;;;17.50;68.90;;;;;;5047509;28;20055;-83
2022/06/18 00:56:37;;;;;;;3.30;1.98;;;17.60;68.50;;;;;;5047436;28;20761;-83
2022/06/18 00:59:10;;;;;;;3.35;2.17;;;17.50;68.80;;;;;;5056696;28;20106;-83
2022/06/18 01:01:42;;;;;;;2.90;1.88;;;17.70;68.60;;;;;;5051846;28;20024;-83
2022/06/18 01:04:40;;;;;;;5.82;2.13;;;17.60;68.40;;;;;;5051342;28;20060;-83
2022/06/18 01:07:30;;;;;;;5.32;1.75;;;17.60;68.60;;;;;;5042752;28;20028;-83
2022/06/18 01:09:57;;;;;;;2.60;1.90;;;17.60;68.60;;;;;;5064494;28;20034;-83
2022/06/18 01:12:24;;;;;;;4.55;2.30;;;17.60;68.80;;;;;;5044121;28;20136;-83
2022/06/18 01:15:11;;;;;;;4.97;1.88;;;17.60;68.50;;;;;;5047853;28;20496;-83
2022/06/18 01:17:40;;;;;;;4.03;2.13;;;17.60;68.60;;;;;;5047988;28;20067;-83
2022/06/18 01:20:09;;;;;;;3.17;1.83;;;17.50;68.70;;;;;;5052594;28;20043;-83
2022/06/18 01:22:34;;;;;;;8.57;1.98;;;17.50;69.20;;;;;;5044017;28;20032;-83
2022/06/18 01:25:00;;;;;;;5.40;2.00;;;17.50;68.80;;;;;;5047211;28;20546;-83
2022/06/18 01:27:26;;;;;;;3.03;1.80;;;17.50;68.80;;;;;;5038542;28;20026;-82
2022/06/18 01:29:54;;;;;;;7.05;2.25;;;17.60;68.40;;;;;;5058500;28;20029;-82
2022/06/18 01:32:21;;;;;;;3.20;1.95;;;17.50;68.70;;;;;;5040115;28;20071;-83
2022/06/18 01:34:48;;;;;;;2.75;1.90;;;17.60;68.60;;;;;;5050436;28;20335;-83
2022/06/18 01:37:14;;;;;;;4.20;2.00;;;17.50;68.90;;;;;;5051585;28;20040;-83
2022/06/18 01:39:43;;;;;;;2.60;1.88;;;17.50;68.90;;;;;;5035338;28;20444;-82
2022/06/18 01:42:12;;;;;;;4.07;1.90;;;17.60;68.60;;;;;;5032891;28;20045;-83
2022/06/18 01:44:57;;;;;;;3.55;1.92;;;17.50;68.70;;;;;;5045943;28;20040;-83
2022/06/18 01:47:31;;;;;;;7.40;1.73;;;17.50;69.10;;;;;;5035588;28;20404;-83
2022/06/18 01:50:12;;;;;;;5.82;1.80;;;17.50;68.40;;;;;;5032008;28;20070;-83
2022/06/18 01:52:41;;;;;;;2.28;1.42;;;17.50;68.70;;;;;;5046998;28;20142;-83
2022/06/18 01:55:14;;;;;;;3.60;2.17;;;17.50;68.50;;;;;;5036629;28;20514;-83
2022/06/18 01:57:44;;;;;;;4.40;1.90;;;17.50;68.70;;;;;;5034067;28;20041;-83
2022/06/18 02:00:15;;;;;;;6.55;1.80;;;17.50;68.60;;;;;;5035247;28;20130;-83
2022/06/18 02:02:42;;;;;;;2.90;1.75;;;17.50;68.90;;;;;;5056224;28;20090;-83
2022/06/18 02:05:09;;;;;;;4.78;1.98;;;17.60;68.50;;;;;;5034709;28;20036;-83
2022/06/18 02:07:35;;;;;;;2.75;1.70;;;17.60;68.30;;;;;;5033047;28;20025;-83
2022/06/18 02:10:09;;;;;;;3.72;1.70;;;17.60;68.10;;;;;;5049987;28;20024;-83
2022/06/18 02:12:38;;;;;;;3.28;2.03;;;17.60;68.10;;;;;;5061953;28;20041;-83
2022/06/18 02:15:08;;;;;;;3.35;1.70;;;17.70;67.90;;;;;;5066323;28;20494;-83
2022/06/18 02:17:35;;;;;;;4.20;2.10;;;17.60;68.00;;;;;;5066764;28;20034;-82
2022/06/18 02:20:15;;;;;;;3.38;1.65;;;17.70;67.70;;;;;;5071952;28;20278;-82
2022/06/18 02:22:47;;;;;;;3.60;1.92;;;17.60;68.10;;;;;;5046983;28;20032;-83
2022/06/18 02:25:15;;;;;;;5.53;2.10;;;17.60;67.90;;;;;;5044078;28;20040;-83
2022/06/18 02:27:42;;;;;;;5.30;1.92;;;17.60;67.90;;;;;;5051886;28;20031;-83
2022/06/18 02:30:20;;;;;;;4.40;2.00;;;17.60;68.10;;;;;;5075634;28;20043;-83
2022/06/18 02:32:54;;;;;;;3.65;2.15;;;17.70;67.90;;;;;;5048123;28;20028;-83
2022/06/18 02:35:19;;;;;;;2.83;1.58;;;17.70;67.70;;;;;;5052433;28;20024;-84
2022/06/18 02:37:46;;;;;;;2.72;1.60;;;17.60;68.00;;;;;;5069372;28;20469;-83
2022/06/18 02:40:24;;;;;;;4.25;1.90;;;17.60;68.20;;;;;;5050430;28;20107;-83
2022/06/18 02:42:53;;;;;;;3.92;2.03;;;17.50;68.70;;;;;;5064662;28;20036;-83
2022/06/18 02:45:21;;;;;;;3.88;2.00;;;17.60;68.60;;;;;;5061687;28;20029;-83
2022/06/18 02:47:48;;;;;;;3.30;1.95;;;17.50;68.70;;;;;;5045933;28;20032;-83
2022/06/18 02:50:16;;;;;;;2.95;1.70;;;17.60;68.60;;;;;;5066695;28;20027;-83
2022/06/18 02:52:55;;;;;;;3.53;1.92;;;17.50;68.70;;;;;;5052240;28;20028;-83
2022/06/18 02:55:38;;;;;;;3.83;2.33;;;17.50;68.70;;;;;;5068607;28;20090;-83
2022/06/18 02:58:10;;;;;;;4.82;1.77;;;17.50;68.50;;;;;;5047668;28;20041;-83
2022/06/18 03:00:38;;;;;;;3.03;1.65;;;17.50;68.90;;;;;;5050312;28;20383;-83
2022/06/18 03:03:10;;;;;;;4.00;2.05;;;17.50;68.80;;;;;;5052146;28;20487;-82
2022/06/18 03:05:36;;;;;;;5.57;1.85;;;17.50;69.00;;;;;;5053049;28;20115;-82
2022/06/18 03:08:02;;;;;;;2.72;1.70;;;17.50;69.50;;;;;;5069288;28;20064;-83
2022/06/18 03:13:12;;;;;;;3.85;1.83;;;17.40;70.10;;;;;;5066504;28;20132;-83
2022/06/18 03:15:38;;;;;;;6.25;2.00;;;17.50;69.40;;;;;;5064191;28;20092;-83
2022/06/18 03:18:04;;;;;;;6.20;1.98;;;17.30;69.80;;;;;;5069037;28;20052;-83
2022/06/18 03:20:55;;;;;;;2.85;1.88;;;17.40;69.50;;;;;;5057369;28;20021;-83
2022/06/18 03:23:23;;;;;;;6.78;2.00;;;17.50;69.30;;;;;;5053626;28;20028;-84
2022/06/18 03:25:49;;;;;;;3.45;2.10;;;17.40;69.60;;;;;;5052387;28;20391;-83
2022/06/18 03:28:15;;;;;;;3.30;1.83;;;17.50;69.30;;;;;;5052515;28;20032;-83
2022/06/18 03:30:42;;;;;;;3.55;1.90;;;17.50;69.70;;;;;;5073474;28;20032;-83
2022/06/18 03:33:08;;;;;;;3.05;1.98;;;17.40;69.80;;;;;;5053724;28;20494;-83
2022/06/18 03:35:34;;;;;;;3.10;1.80;;;17.50;69.40;;;;;;5073968;28;20020;-83
2022/06/18 03:37:59;;;;;;;2.90;2.00;;;17.50;69.60;;;;;;5072929;28;20025;-83
2022/06/18 03:40:25;;;;;;;3.30;2.00;;;17.50;69.50;;;;;;5073853;28;20391;-82
2022/06/18 03:42:53;;;;;;;3.97;2.10;;;17.60;69.10;;;;;;5054292;28;20438;-83
2022/06/18 03:45:20;;;;;;;3.08;1.90;;;17.60;69.20;;;;;;5069748;28;20035;-82
2022/06/18 03:47:49;;;;;;;4.45;1.77;;;17.60;69.50;;;;;;5053727;28;20047;-82
2022/06/18 03:50:18;;;;;;;5.25;1.98;;;17.70;69.40;;;;;;5055265;28;20059;-82
2022/06/18 03:52:43;;;;;;;2.63;1.73;;;17.60;69.80;;;;;;5055468;28;20029;-82
2022/06/18 03:55:11;;;;;;;3.03;2.20;;;17.60;70.20;;;;;;5047675;28;20395;-83
2022/06/18 03:57:37;;;;;;;3.28;2.00;;;17.50;70.30;;;;;;5056060;28;20590;-82
2022/06/18 04:00:06;;;;;;;5.60;2.40;;;17.60;70.20;;;;;;5055222;28;20127;-82
2022/06/18 04:02:32;;;;;;;6.25;1.92;;;17.70;69.90;;;;;;5054903;28;20052;-83
2022/06/18 04:04:57;;;;;;;4.43;1.73;;;17.70;70.00;;;;;;5053290;28;20060;-83
2022/06/18 04:07:24;;;;;;;3.35;1.92;;;17.70;70.40;;;;;;5070253;28;20489;-82
2022/06/18 04:09:52;;;;;;;3.22;1.88;;;17.70;70.20;;;;;;5066892;28;20031;-82
2022/06/18 04:12:17;;;;;;;2.88;1.98;;;17.70;70.50;;;;;;5067412;28;20049;-82
2022/06/18 04:14:44;;;;;;;2.53;1.80;;;17.60;71.10;;;;;;5072474;28;20190;-83
2022/06/18 04:17:13;;;;;;;3.42;1.92;;;17.60;71.20;;;;;;5054831;28;20035;-83
2022/06/18 04:19:38;;;;;;;5.07;2.05;;;17.70;71.20;;;;;;5051241;28;20040;-84
2022/06/18 04:22:04;;;;;;;3.60;2.10;;;17.70;71.40;;;;;;5053198;28;20407;-84
2022/06/18 04:24:29;;;;;;;4.45;2.00;;;17.70;71.60;;;;;;5053651;28;20031;-84
2022/06/18 04:26:55;;;;;;;3.53;2.17;;;17.60;72.10;;;;;;5052090;28;20028;-84
2022/06/18 04:29:21;;;;;;;4.95;2.22;;;17.70;71.70;;;;;;5069199;28;20505;-84
2022/06/18 04:31:47;;;;;;;3.45;2.03;;;17.70;71.80;;;;;;5053002;28;20056;-84
2022/06/18 04:34:13;;;;;;;3.88;2.10;;;17.80;71.80;;;;;;5050801;28;20055;-84
2022/06/18 04:36:41;;;;;;;4.07;2.35;;;17.80;71.80;;;;;;5069660;28;20082;-84
2022/06/18 04:39:07;;;;;;;4.75;2.35;;;17.90;71.70;;;;;;5066716;28;20025;-84
2022/06/18 04:41:33;;;;;;;3.75;2.20;;;17.90;72.10;;;;;;5055559;28;20059;-84
2022/06/18 04:43:59;;;;;;;3.15;2.15;;;18.00;71.60;;;;;;5069833;28;20060;-84
2022/06/18 04:46:25;;;;;;;4.90;2.10;;;18.10;71.70;;;;;;5052583;28;20112;-84
2022/06/18 04:48:51;;;;;;;6.18;2.90;;;18.10;71.40;;;;;;5070359;28;20029;-84
2022/06/18 04:51:17;;;;;;;4.75;2.20;;;18.30;70.70;;;;;;5051565;28;20162;-84
2022/06/18 04:53:43;;;;;;;4.43;2.28;;;18.40;70.70;;;;;;5046382;28;20510;-84
2022/06/18 04:56:08;;;;;;;4.15;2.13;;;18.50;70.90;;;;;;5070516;28;20491;-84
2022/06/18 04:58:34;;;;;;;5.30;2.40;;;18.40;71.30;;;;;;5066289;28;20044;-83
2022/06/18 05:01:00;;;;;;;3.78;2.65;;;18.50;71.00;;;;;;5067735;28;20480;-83
2022/06/18 05:03:25;;;;;;;3.65;2.42;;;18.60;70.80;;;;;;5071688;28;20067;-84
2022/06/18 05:05:51;;;;;;;5.40;2.40;;;18.70;70.30;;;;;;5066482;28;20032;-84
2022/06/18 05:08:17;;;;;;;3.95;2.42;;;18.90;69.50;;;;;;5051891;28;20584;-84
2022/06/18 05:10:43;;;;;;;3.45;2.22;;;19.00;69.70;;;;;;5045526;28;20036;-83
2022/06/18 05:13:09;;;;;;;3.42;2.20;;;19.00;69.60;;;;;;5051995;28;20049;-84
2022/06/18 05:15:36;;;;;;;4.63;2.55;;;19.10;69.90;;;;;;5054050;28;20756;-85
2022/06/18 05:18:01;;;;;;;6.65;2.47;;;19.20;69.80;;;;;;5048780;28;20070;-84
2022/06/18 05:20:27;;;;;;;6.07;2.42;;;19.20;69.90;;;;;;5049804;28;20032;-84
2022/06/18 05:22:53;;;;;;;4.25;2.25;;;19.20;70.30;;;;;;5070119;28;20060;-85
2022/06/18 05:25:19;;;;;;;4.18;2.17;;;19.30;70.40;;;;;;5051848;28;20617;-84
2022/06/18 05:27:46;;;;;;;4.13;2.40;;;19.40;70.10;;;;;;5047368;28;20158;-84
2022/06/18 05:30:15;;;;;;;4.82;2.40;;;19.50;70.30;;;;;;5046733;28;20088;-84
2022/06/18 05:32:41;;;;;;;5.85;2.50;;;19.50;69.40;;;;;;5051066;28;20031;-84
2022/06/18 05:35:08;;;;;;;3.42;2.45;;;19.60;69.90;;;;;;5051694;28;20028;-83
2022/06/18 05:37:34;;;;;;;6.43;2.50;;;19.70;69.60;;;;;;5049792;28;20028;-82
2022/06/18 05:40:01;;;;;;;5.18;2.58;;;19.70;69.20;;;;;;5063619;28;20036;-84
2022/06/18 05:42:27;;;;;;;4.53;2.50;;;19.90;69.00;;;;;;5037768;28;20032;-84
2022/06/18 05:44:54;;;;;;;5.93;2.70;;;20.00;69.20;;;;;;5040291;28;20039;-84
2022/06/18 05:47:26;;;;;;;6.47;2.60;;;20.10;68.70;;;;;;5066637;28;20047;-84
2022/06/18 05:49:53;;;;;;;6.63;2.67;;;20.10;68.40;;;;;;5063734;28;20024;-85
2022/06/18 05:52:19;;;;;;;4.78;2.88;;;20.30;68.90;;;;;;5051582;28;20430;-84
2022/06/18 05:54:46;;;;;;;4.95;2.33;;;20.30;69.00;;;;;;5069754;28;20055;-84
2022/06/18 05:57:12;;;;;;;5.65;2.72;;;20.50;69.00;;;;;;5049047;28;20024;-84
2022/06/18 05:59:38;;;;;;;6.82;2.60;;;20.60;68.40;;;;;;5067501;28;20044;-84
2022/06/18 06:02:04;;;;;;;7.18;2.70;;;20.70;68.30;;;;;;5050034;28;20028;-83
2022/06/18 06:04:30;;;;;;;6.80;2.67;;;20.80;68.70;;;;;;5050427;28;20052;-84
2022/06/18 06:06:55;;;;;;;4.95;2.63;;;20.90;67.70;;;;;;5069259;28;20020;-83
2022/06/18 06:12:11;;;;;;;4.78;2.80;;;21.10;66.30;;;;;;5060328;28;20075;-83
2022/06/18 06:14:37;;;;;;;4.03;2.72;;;21.30;67.20;;;;;;5059970;28;20082;-83
2022/06/18 06:17:04;;;;;;;4.28;2.50;;;21.40;66.80;;;;;;5065001;28;20102;-81
2022/06/18 06:19:29;;;;;;;5.72;2.75;;;21.60;66.50;;;;;;5043943;28;20444;-82
2022/06/18 06:21:55;;;;;;;4.75;2.60;;;21.70;66.50;;;;;;5069562;28;20066;-82
2022/06/18 06:24:20;;;;;;;9.02;3.53;;;21.70;65.50;;;;;;5053176;28;20488;-83
2022/06/18 06:26:46;;;;;;;5.85;2.88;;;21.80;64.40;;;;;;5062030;28;20547;-81
2022/06/18 06:29:12;;;;;;;6.78;2.92;;;21.90;64.70;;;;;;5069029;28;20036;-83
2022/06/18 06:31:37;;;;;;;6.20;3.25;;;21.90;65.10;;;;;;5050412;28;20057;-83
2022/06/18 06:34:03;;;;;;;4.65;2.97;;;22.00;65.40;;;;;;5051623;28;20032;-85
2022/06/18 06:36:28;;;;;;;4.70;3.25;;;22.20;65.10;;;;;;5066703;28;20078;-85
2022/06/18 06:38:54;;;;;;;9.45;3.38;;;22.20;64.30;;;;;;5064468;28;20055;-85
2022/06/18 06:41:23;;;;;;;5.28;3.30;;;22.30;64.00;;;;;;5047619;28;20028;-84
2022/06/18 06:43:50;;;;;;;5.90;3.13;;;22.40;63.50;;;;;;5065958;28;20119;-85
2022/06/18 06:46:17;;;;;;;6.63;4.10;;;22.50;64.00;;;;;;5043788;28;20028;-84
2022/06/18 06:48:43;;;;;;;12.07;4.00;;;22.50;63.10;;;;;;5065641;28;20032;-84
2022/06/18 06:51:14;;;;;;;7.13;3.47;;;22.50;62.60;;;;;;5052290;28;20460;-85
2022/06/18 06:53:40;;;;;;;5.63;3.50;;;22.70;63.40;;;;;;5051352;28;20028;-84
2022/06/18 06:58:53;;;;;;;9.43;4.30;;;23.00;63.00;;;;;;5059780;28;20403;-85
2022/06/18 07:01:18;;;;;;;7.03;3.50;;;23.00;62.20;;;;;;5068731;28;20085;-86
2022/06/18 07:03:44;;;;;;;11.23;3.70;;;23.10;61.90;;;;;;5061148;28;20036;-85
2022/06/18 07:06:10;;;;;;;7.93;3.80;;;23.30;63.40;;;;;;5060610;28;20395;-87
2022/06/18 07:08:35;;;;;;;6.57;4.00;;;23.20;61.80;;;;;;5046087;28;20025;-84
2022/06/18 07:11:01;;;;;;;7.90;3.45;;;23.30;61.20;;;;;;5047938;28;20763;-83
2022/06/18 07:13:27;;;;;;;8.82;4.57;;;23.50;61.60;;;;;;5042962;28;20407;-83
2022/06/18 07:15:53;;;;;;;7.05;3.90;;;23.40;61.20;;;;;;5065527;28;20408;-83
2022/06/18 07:18:22;;;;;;;7.07;3.72;;;23.50;61.10;;;;;;5050007;28;20032;-83
2022/06/18 07:20:47;;;;;;;10.07;4.30;;;23.50;61.20;;;;;;5051435;28;20056;-83
2022/06/18 07:23:13;;;;;;;8.30;4.00;;;23.50;61.70;;;;;;5051487;28;20505;-83
2022/06/18 07:25:40;;;;;;;9.00;4.70;;;23.70;61.40;;;;;;5049515;28;20028;-83
2022/06/18 07:28:06;;;;;;;7.32;3.53;;;23.50;61.00;;;;;;5062353;28;20032;-83
2022/06/18 07:30:34;;;;;;;6.63;4.40;;;23.80;61.50;;;;;;5059049;28;20021;-83
2022/06/18 07:33:00;;;;;;;6.68;3.70;;;24.00;61.00;;;;;;5045867;28;20035;-83
2022/06/18 07:35:31;;;;;;;6.55;3.70;;;24.00;60.60;;;;;;5047509;28;20028;-83
2022/06/18 07:37:58;;;;;;;7.70;4.18;;;24.20;61.20;;;;;;5048067;28;20372;-83
2022/06/18 07:40:28;;;;;;;11.70;5.13;;;24.30;60.30;;;;;;5050254;28;20032;-83
2022/06/18 07:42:54;;;;;;;8.98;4.03;;;24.20;59.70;;;;;;5046568;28;20365;-84
2022/06/18 07:45:23;;;;;;;8.40;4.65;;;24.30;60.30;;;;;;5067370;28;20024;-83
2022/06/18 07:47:48;;;;;;;10.48;4.22;;;24.40;59.60;;;;;;5051034;28;20028;-83
2022/06/18 07:50:16;;;;;;;9.65;4.00;;;24.40;59.30;;;;;;5050578;28;20416;-83
2022/06/18 07:52:42;;;;;;;8.48;4.35;;;24.50;59.30;;;;;;5046710;28;20245;-83
2022/06/18 07:55:13;;;;;;;11.45;4.20;;;24.50;59.70;;;;;;5047400;28;20433;-83
2022/06/18 07:57:38;;;;;;;19.52;6.65;;;24.70;58.40;;;;;;5057642;28;20036;-83
2022/06/18 08:00:06;;;;;;;7.50;4.45;;;24.80;59.00;;;;;;5058326;28;20056;-83
2022/06/18 08:02:36;;;;;;;7.97;4.65;;;24.80;58.50;;;;;;5061786;28;20025;-83
2022/06/18 08:05:02;;;;;;;8.73;4.95;;;24.70;59.00;;;;;;5052072;28;20456;-83
2022/06/18 08:07:27;;;;;;;8.52;4.72;;;24.80;58.90;;;;;;5068139;28;20072;-83
2022/06/18 08:09:53;;;;;;;10.35;5.10;;;25.00;58.50;;;;;;5044684;28;20020;-83
2022/06/18 08:12:19;;;;;;;8.10;4.28;;;25.00;57.90;;;;;;5052461;28;20127;-83
2022/06/18 08:14:45;;;;;;;8.93;4.97;;;24.90;58.50;;;;;;5051192;28;20037;-83
2022/06/18 08:17:10;;;;;;;10.50;4.88;;;25.00;58.70;;;;;;5060788;28;20611;-82
2022/06/18 08:19:36;;;;;;;7.70;4.00;;;25.30;58.70;;;;;;5073523;28;20024;-83
2022/06/18 08:22:01;;;;;;;6.95;4.57;;;25.50;58.80;;;;;;5072552;28;20832;-82
2022/06/18 08:24:27;;;;;;;6.63;4.20;;;25.60;57.80;;;;;;5052934;28;20132;-83
2022/06/18 08:26:53;;;;;;;9.60;3.80;;;25.60;56.80;;;;;;5049317;28;20033;-83
2022/06/18 08:29:21;;;;;;;6.15;3.65;;;25.50;56.80;;;;;;5049688;28;20024;-83
2022/06/18 08:31:47;;;;;;;7.90;4.32;;;25.60;57.10;;;;;;5047296;28;20033;-83
2022/06/18 08:34:13;;;;;;;7.43;4.28;;;25.70;56.20;;;;;;5049953;28;20051;-83
2022/06/18 08:36:39;;;;;;;8.75;4.22;;;25.70;56.80;;;;;;5054242;28;20036;-83
2022/06/18 08:39:06;;;;;;;9.57;4.57;;;26.00;57.80;;;;;;5072441;28;20128;-83
2022/06/18 08:41:38;;;;;;;7.97;4.10;;;25.90;56.40;;;;;;5054782;28;20492;-83
2022/06/18 08:44:31;;;;;;;10.32;4.78;;;26.00;56.40;;;;;;5065963;28;20074;-82
2022/06/18 08:47:14;;;;;;;12.00;4.80;;;26.00;55.80;;;;;;5059616;28;20036;-83
2022/06/18 08:50:00;;;;;;;9.73;4.35;;;26.00;56.20;;;;;;5065641;28;20031;-83
2022/06/18 08:53:07;;;;;;;8.20;4.18;;;26.40;57.00;;;;;;5062483;28;20460;-83
2022/06/18 08:55:45;;;;;;;8.30;3.40;;;26.60;56.50;;;;;;5046201;28;20438;-83
2022/06/18 08:58:16;;;;;;;10.27;3.90;;;26.90;56.30;;;;;;5063004;28;20021;-83
2022/06/18 09:01:17;;;;;;;7.90;3.40;;;26.90;55.40;;;;;;5044480;28;20037;-83
2022/06/18 09:04:11;;;;;;;7.65;3.40;;;26.90;54.50;;;;;;5066323;28;20059;-83
2022/06/18 09:06:59;;;;;;;7.35;4.03;;;27.00;55.40;;;;;;5067327;28;20415;-84
2022/06/18 09:09:27;;;;;;;8.35;3.35;;;27.20;54.90;;;;;;5071769;28;20051;-83
2022/06/18 09:12:14;;;;;;;8.25;3.92;;;27.10;55.50;;;;;;5052532;28;20044;-83
2022/06/18 09:14:47;;;;;;;6.18;3.47;;;27.20;54.80;;;;;;5050656;28;20035;-83
2022/06/18 09:17:30;;;;;;;4.47;2.90;;;27.40;54.30;;;;;;5053991;28;20491;-83
2022/06/18 09:20:04;;;;;;;6.45;3.20;;;27.20;54.10;;;;;;5054008;28;20086;-83
2022/06/18 09:22:32;;;;;;;7.97;2.67;;;27.40;54.30;;;;;;5053309;28;20547;-83
2022/06/18 09:25:03;;;;;;;8.13;3.00;;;27.50;54.00;;;;;;5070039;28;20074;-83
2022/06/18 09:27:41;;;;;;;8.07;2.88;;;27.80;52.60;;;;;;5070475;28;20104;-83
2022/06/18 09:30:34;;;;;;;11.65;2.78;;;27.60;52.50;;;;;;5053991;28;20039;-83
2022/06/18 09:33:05;;;;;;;6.13;3.03;;;28.00;52.20;;;;;;5054390;28;20020;-83
2022/06/18 09:35:45;;;;;;;6.45;3.22;;;27.30;52.90;;;;;;5052659;28;20555;-84
2022/06/18 09:38:36;;;;;;;9.70;3.05;;;27.50;53.40;;;;;;5052936;28;20032;-84
2022/06/18 09:41:06;;;;;;;7.47;3.03;;;27.60;53.10;;;;;;5051554;28;20170;-84
2022/06/18 09:43:45;;;;;;;5.82;2.90;;;27.70;52.60;;;;;;5048024;28;20460;-84
2022/06/18 09:46:37;;;;;;;9.35;3.38;;;27.90;53.30;;;;;;5069961;28;20035;-84
2022/06/18 09:49:02;;;;;;;12.45;2.97;;;27.70;52.40;;;;;;5056439;28;20040;-84
2022/06/18 09:51:46;;;;;;;6.07;3.60;;;27.80;52.90;;;;;;5070198;28;20020;-84
2022/06/18 09:54:15;;;;;;;10.23;3.63;;;27.30;53.30;;;;;;5050544;28;20500;-84
2022/06/18 09:56:46;;;;;;;9.80;3.20;;;27.20;54.00;;;;;;5044171;28;20029;-84
2022/06/18 09:59:17;;;;;;;9.52;4.07;;;27.50;55.00;;;;;;5067199;28;20028;-84
2022/06/18 10:01:47;;;;;;;7.63;3.67;;;27.60;53.90;;;;;;5053679;28;20181;-85
2022/06/18 10:07:06;;;;;;;8.02;3.75;;;27.70;51.90;;;;;;5071096;28;20093;-84
2022/06/18 10:09:44;;;;;;;6.47;3.03;;;27.40;54.10;;;;;;5051517;28;20245;-84
2022/06/18 10:12:25;;;;;;;8.32;3.17;;;27.90;53.10;;;;;;5069085;28;20040;-84
2022/06/18 10:14:58;;;;;;;9.68;3.38;;;27.60;52.40;;;;;;5065715;28;20395;-84
2022/06/18 10:17:52;;;;;;;7.38;3.33;;;27.60;54.50;;;;;;5043633;28;20471;-84
2022/06/18 10:20:46;;;;;;;6.82;3.38;;;28.00;52.50;;;;;;5041621;28;20487;-84
2022/06/18 10:23:36;;;;;;;9.02;3.38;;;28.50;52.80;;;;;;5050368;28;20020;-85
2022/06/18 10:26:35;;;;;;;8.77;3.33;;;28.40;52.00;;;;;;5050711;28;20043;-84
2022/06/18 10:29:28;;;;;;;11.02;3.15;;;28.20;51.80;;;;;;5051605;28;20392;-84
2022/06/18 10:32:14;;;;;;;8.27;2.75;;;28.40;52.10;;;;;;5051544;28;20116;-84
2022/06/18 10:35:30;;;;;;;7.13;2.88;;;28.40;50.90;;;;;;5050919;28;20116;-84
2022/06/18 10:37:55;;;;;;;6.03;2.40;;;28.50;51.50;;;;;;5039387;28;20518;-84
2022/06/18 10:41:05;;;;;;;7.25;2.28;;;28.60;49.50;;;;;;5051999;28;20170;-84
2022/06/18 10:43:37;;;;;;;5.67;1.73;;;28.90;50.30;;;;;;5049748;28;20051;-84
2022/06/18 10:46:08;;;;;;;4.25;1.92;;;28.60;48.80;;;;;;5067388;28;20111;-84
2022/06/18 10:48:35;;;;;;;5.63;2.00;;;28.40;49.00;;;;;;5050787;28;20035;-85
2022/06/18 10:51:02;;;;;;;6.47;2.15;;;28.30;49.20;;;;;;5052442;28;20120;-85
2022/06/18 10:53:55;;;;;;;6.20;2.60;;;28.40;48.70;;;;;;5052550;28;20516;-84
2022/06/18 10:56:33;;;;;;;8.38;2.33;;;28.70;48.30;;;;;;5048621;28;20033;-85
2022/06/18 10:59:01;;;;;;;7.03;2.05;;;28.60;48.90;;;;;;5057638;28;20469;-85
2022/06/18 11:01:39;;;;;;;4.85;2.08;;;28.90;47.90;;;;;;5067531;28;20017;-85
2022/06/18 11:04:24;;;;;;;4.80;2.20;;;28.60;48.40;;;;;;5064677;28;20415;-85
2022/06/18 11:06:57;;;;;;;7.90;2.30;;;28.70;48.10;;;;;;5066649;28;20024;-84
2022/06/18 11:09:26;;;;;;;5.65;2.58;;;28.60;48.20;;;;;;5051712;28;20426;-85
2022/06/18 11:12:07;;;;;;;8.40;2.60;;;28.70;48.10;;;;;;5067017;28;20033;-85
2022/06/18 11:14:43;;;;;;;7.78;2.80;;;28.90;48.20;;;;;;5048162;28;20064;-84
2022/06/18 11:17:20;;;;;;;5.50;2.20;;;28.70;48.20;;;;;;5066822;28;20021;-85
2022/06/18 11:19:48;;;;;;;11.35;2.47;;;29.00;48.40;;;;;;5050259;28;20027;-85
2022/06/18 11:22:29;;;;;;;9.25;2.30;;;29.00;47.70;;;;;;5067495;28;20029;-84
2022/06/18 11:24:58;;;;;;;6.28;2.55;;;28.60;49.50;;;;;;5064666;28;20025;-85
2022/06/18 11:27:30;;;;;;;7.15;2.17;;;29.10;49.40;;;;;;5049731;28;20112;-84
2022/06/18 11:29:55;;;;;;;7.03;2.10;;;29.20;48.30;;;;;;5047901;28;20050;-84
2022/06/18 11:32:31;;;;;;;9.95;2.67;;;28.90;48.90;;;;;;5070161;28;20550;-85
2022/06/18 11:35:06;;;;;;;6.63;2.30;;;29.70;47.20;;;;;;5047268;28;20032;-85
2022/06/18 11:37:33;;;;;;;4.78;2.28;;;29.50;47.20;;;;;;5040932;28;20500;-85
2022/06/18 11:40:09;;;;;;;6.45;2.60;;;29.70;48.30;;;;;;5068625;28;20032;-85
2022/06/18 11:42:57;;;;;;;8.40;2.42;;;29.80;47.10;;;;;;5071912;28;20027;-85
2022/06/18 11:45:28;;;;;;;10.32;3.47;;;29.50;48.50;;;;;;5064836;28;20464;-82
2022/06/18 11:48:03;;;;;;;6.07;2.33;;;29.50;48.00;;;;;;5053832;28;20169;-83
2022/06/18 11:50:34;;;;;;;7.75;2.30;;;29.50;48.50;;;;;;5070164;28;20103;-82
2022/06/18 11:53:05;;;;;;;;;;;29.50;47.80;;;;;;5073729;28;20415;-84
2022/06/18 11:55:37;;;;;;;8.88;2.13;;;29.70;47.00;;;;;;5067955;28;20397;-84
2022/06/18 11:58:22;;;;;;;8.05;2.53;;;29.40;47.30;;;;;;5053509;28;20031;-83
2022/06/18 12:01:04;;;;;;;6.45;2.63;;;29.40;48.10;;;;;;5049061;28;20056;-84
2022/06/18 12:04:03;;;;;;;8.10;2.50;;;29.50;48.10;;;;;;5053496;28;20115;-83
2022/06/18 12:06:59;;;;;;;9.07;2.88;;;29.60;47.90;;;;;;5056864;28;20024;-84
2022/06/18 12:09:27;;;;;;;8.48;2.55;;;29.80;47.50;;;;;;5052325;28;20028;-83
2022/06/18 12:12:11;;;;;;;8.23;2.38;;;30.00;47.00;;;;;;5069225;28;20829;-84
2022/06/18 12:14:44;;;;;;;7.15;2.25;;;30.10;46.60;;;;;;5053736;28;20025;-84
2022/06/18 12:17:20;;;;;;;8.23;2.10;;;30.10;49.10;;;;;;5069546;28;20043;-83
2022/06/18 12:20:04;;;;;;;4.80;1.65;;;30.20;46.80;;;;;;5065440;28;20089;-83
2022/06/18 12:22:48;;;;;;;4.05;1.85;;;30.40;47.80;;;;;;5070346;28;20033;-84
2022/06/18 12:25:36;;;;;;;4.93;1.80;;;30.40;47.00;;;;;;5058930;28;20029;-84
2022/06/18 12:28:07;;;;;;;5.22;1.52;;;30.30;46.70;;;;;;5071100;28;20032;-83
2022/06/18 12:30:50;;;;;;;5.50;1.65;;;30.40;47.10;;;;;;5048137;28;20465;-84
2022/06/18 12:33:42;;;;;;;6.20;1.70;;;30.40;45.20;;;;;;5054101;28;20024;-84
2022/06/18 12:36:12;;;;;;;5.85;1.60;;;30.50;46.20;;;;;;5033131;28;20028;-84
2022/06/18 12:38:53;;;;;;;5.72;1.60;;;30.30;46.00;;;;;;5055143;28;20032;-84
2022/06/18 12:41:38;;;;;;;7.32;1.77;;;30.50;46.00;;;;;;5053414;28;20020;-84
2022/06/18 12:44:10;;;;;;;2.97;1.10;;;30.20;45.90;;;;;;5067082;28;20020;-84
2022/06/18 12:46:49;;;;;;;4.25;1.45;;;30.40;45.70;;;;;;5059211;28;20396;-84
2022/06/18 12:49:30;;;;;;;5.78;1.27;;;30.40;46.10;;;;;;5051151;28;20507;-86
2022/06/18 12:52:30;;;;;;;3.15;1.30;;;30.90;45.10;;;;;;5047575;28;20074;-86
2022/06/18 12:55:29;;;;;;;5.47;1.58;;;30.90;46.60;;;;;;5052645;28;20032;-86
2022/06/18 12:58:06;;;;;;;4.32;1.20;;;30.50;44.90;;;;;;5066579;28;20048;-85
2022/06/18 13:00:41;;;;;;;3.63;1.10;;;30.20;46.70;;;;;;5051968;28;20106;-86
2022/06/18 13:03:27;;;;;;;7.57;1.65;;;30.20;46.10;;;;;;5054344;28;20033;-86
2022/06/18 13:06:17;;;;;;;3.03;1.20;;;30.10;46.20;;;;;;5056274;28;20082;-86
2022/06/18 13:09:03;;;;;;;2.53;1.15;;;30.60;45.00;;;;;;5054499;28;20036;-86
2022/06/18 13:11:40;;;;;;;4.35;1.15;;;30.90;45.40;;;;;;5072676;28;20032;-86
2022/06/18 13:14:39;;;;;;;3.78;1.00;;;30.90;45.30;;;;;;5068593;28;20036;-86
2022/06/18 13:17:11;;;;;;;4.87;1.00;;;31.10;44.30;;;;;;5049847;28;20024;-85
2022/06/18 13:19:53;;;;;;;4.07;1.02;;;30.80;43.90;;;;;;5043241;28;20535;-86
2022/06/18 13:22:19;;;;;;;3.42;0.90;;;30.20;44.90;;;;;;5055626;28;20025;-86
2022/06/18 13:30:24;;;;;;;2.38;0.90;;;30.70;44.30;;;;;;5064286;28;20031;-86